createdAt,value
2022-11-24T00:01:28.249Z,6.45
2022-11-24T00:04:00.729Z,6.50
2022-11-24T00:06:29.088Z,5.90
2022-11-24T00:08:57.319Z,5.57
2022-11-24T00:11:26.815Z,5.97
2022-11-24T00:13:54.829Z,5.65
2022-11-24T00:16:25.933Z,6.25
2022-11-24T00:18:55.289Z,6.40
2022-11-24T00:21:23.228Z,7.38
2022-11-24T00:23:51.310Z,5.40
2022-11-24T00:26:23.409Z,7.15
2022-11-24T00:28:52.659Z,5.90
2022-11-24T00:31:21.248Z,6.07
2022-11-24T00:33:50.448Z,6.13
2022-11-24T00:36:19.100Z,4.88
2022-11-24T00:38:47.098Z,6.05
2022-11-24T00:41:14.508Z,4.97
2022-11-24T00:43:41.843Z,5.70
2022-11-24T00:46:09.243Z,5.47
2022-11-24T00:48:36.653Z,5.47
2022-11-24T00:51:06.760Z,5.80
2022-11-24T00:53:34.268Z,5.63
2022-11-24T00:56:04.136Z,5.80
2022-11-24T00:58:32.114Z,5.18
2022-11-24T01:01:13.598Z,6.30
2022-11-24T01:03:42.333Z,6.18
2022-11-24T01:06:15.564Z,7.30
2022-11-24T01:08:43.283Z,5.05
2022-11-24T01:11:19.142Z,5.97
2022-11-24T01:13:48.694Z,5.28
2022-11-24T01:16:19.471Z,5.25
2022-11-24T01:18:47.055Z,6.65
2022-11-24T01:21:15.374Z,6.22
2022-11-24T01:23:42.863Z,5.65
2022-11-24T01:26:12.494Z,6.05
2022-11-24T01:28:46.250Z,5.10
2022-11-24T01:31:14.403Z,5.82
2022-11-24T01:33:41.673Z,5.75
2022-11-24T01:36:08.986Z,6.05
2022-11-24T01:38:36.193Z,5.25
2022-11-24T01:41:05.453Z,7.82
2022-11-24T01:43:32.984Z,6.28
2022-11-24T01:46:13.370Z,5.57
2022-11-24T01:48:46.773Z,5.22
2022-11-24T01:51:20.974Z,6.28
2022-11-24T01:53:58.223Z,5.70
2022-11-24T01:56:26.756Z,5.07
2022-11-24T01:58:58.793Z,4.97
2022-11-24T02:01:26.357Z,4.95
2022-11-24T02:03:53.946Z,5.30
2022-11-24T02:06:27.593Z,5.68
2022-11-24T02:08:59.373Z,5.72
2022-11-24T02:11:30.752Z,5.80
2022-11-24T02:13:58.033Z,4.97
2022-11-24T02:16:25.579Z,5.22
2022-11-24T02:18:53.253Z,5.28
2022-11-24T02:21:20.536Z,6.43
2022-11-24T02:24:00.032Z,6.18
2022-11-24T02:26:47.092Z,6.28
2022-11-24T02:29:15.378Z,5.22
2022-11-24T02:31:48.181Z,6.38
2022-11-24T02:34:15.444Z,5.82
2022-11-24T02:36:42.653Z,6.70
2022-11-24T02:39:14.501Z,5.82
2022-11-24T02:41:49.934Z,6.30
2022-11-24T02:44:20.202Z,6.10
2022-11-24T02:46:47.452Z,5.78
2022-11-24T02:49:15.832Z,6.20
2022-11-24T02:51:42.973Z,6.38
2022-11-24T02:54:10.207Z,6.75
2022-11-24T02:56:37.373Z,5.70
2022-11-24T02:59:04.533Z,6.35
2022-11-24T03:01:31.723Z,6.38
2022-11-24T03:03:59.001Z,6.35
2022-11-24T03:06:26.124Z,7.32
2022-11-24T03:08:53.372Z,6.15
2022-11-24T03:11:20.603Z,5.40
2022-11-24T03:13:47.755Z,6.38
2022-11-24T03:16:15.027Z,6.35
2022-11-24T03:18:42.223Z,6.05
2022-11-24T03:21:09.395Z,7.22
2022-11-24T03:23:36.573Z,6.03
2022-11-24T03:26:10.414Z,6.20
2022-11-24T03:31:05.350Z,5.95
2022-11-24T03:33:32.735Z,6.10
2022-11-24T03:35:59.954Z,6.90
2022-11-24T03:38:27.615Z,7.25
2022-11-24T03:40:54.864Z,6.47
2022-11-24T03:43:22.126Z,6.93
2022-11-24T03:45:50.393Z,7.05
2022-11-24T03:48:21.345Z,6.03
2022-11-24T03:50:59.483Z,6.82
2022-11-24T03:53:29.013Z,6.85
2022-11-24T03:55:56.294Z,6.82
2022-11-24T03:58:24.284Z,7.57
2022-11-24T04:00:53.173Z,6.47
2022-11-24T04:03:20.815Z,6.65
2022-11-24T04:05:48.004Z,6.85
2022-11-24T04:08:15.823Z,6.47
2022-11-24T04:10:43.205Z,6.75
2022-11-24T04:13:15.815Z,5.40
2022-11-24T04:15:44.295Z,5.78
2022-11-24T04:18:13.433Z,7.80
2022-11-24T04:20:41.845Z,5.80
2022-11-24T04:23:10.005Z,6.93
2022-11-24T04:25:37.892Z,5.57
2022-11-24T04:28:05.424Z,6.43
2022-11-24T04:30:33.792Z,6.18
2022-11-24T04:33:01.049Z,5.97
2022-11-24T04:35:28.454Z,6.85
2022-11-24T04:37:55.784Z,8.23
2022-11-24T04:40:22.974Z,6.47
2022-11-24T04:42:55.198Z,7.18
2022-11-24T04:45:23.234Z,6.40
2022-11-24T04:47:50.441Z,6.95
2022-11-24T04:50:18.387Z,6.15
2022-11-24T04:52:45.664Z,6.20
2022-11-24T04:55:13.165Z,6.70
2022-11-24T04:57:40.443Z,5.57
2022-11-24T05:00:08.495Z,5.20
2022-11-24T05:02:35.764Z,6.57
2022-11-24T05:05:03.213Z,5.53
2022-11-24T05:07:30.459Z,5.63
2022-11-24T05:10:16.373Z,6.10
2022-11-24T05:12:48.401Z,6.85
2022-11-24T05:15:18.343Z,5.68
2022-11-24T05:17:45.484Z,5.45
2022-11-24T05:20:12.615Z,5.57
2022-11-24T05:22:39.783Z,6.22
2022-11-24T05:25:07.193Z,6.07
2022-11-24T05:27:34.347Z,5.60
2022-11-24T05:30:01.541Z,5.93
2022-11-24T05:32:28.695Z,6.10
2022-11-24T05:34:56.886Z,5.72
2022-11-24T05:37:25.762Z,6.97
2022-11-24T05:39:54.731Z,5.22
2022-11-24T05:42:46.096Z,6.47
2022-11-24T05:45:19.864Z,5.85
2022-11-24T05:47:47.966Z,6.32
2022-11-24T05:50:17.644Z,5.70
2022-11-24T05:52:45.184Z,6.05
2022-11-24T05:55:15.192Z,6.15
2022-11-24T05:57:43.134Z,5.28
2022-11-24T06:00:11.660Z,5.40
2022-11-24T06:02:42.094Z,6.15
2022-11-24T06:05:09.512Z,6.22
2022-11-24T06:07:36.876Z,5.95
2022-11-24T06:10:05.024Z,4.82
2022-11-24T06:12:32.271Z,5.88
2022-11-24T06:14:59.423Z,5.32
2022-11-24T06:17:26.677Z,6.13
2022-11-24T06:19:54.134Z,6.82
2022-11-24T06:22:21.473Z,5.05
2022-11-24T06:24:50.684Z,5.30
2022-11-24T06:27:18.375Z,6.53
2022-11-24T06:29:45.723Z,5.03
2022-11-24T06:32:12.956Z,6.22
2022-11-24T06:34:40.224Z,5.57
2022-11-24T06:37:07.514Z,5.45
2022-11-24T06:39:34.714Z,4.65
2022-11-24T06:42:02.217Z,5.18
2022-11-24T06:44:29.688Z,5.40
2022-11-24T06:46:57.017Z,6.95
2022-11-24T06:49:24.305Z,4.50
2022-11-24T06:51:51.733Z,5.75
2022-11-24T06:54:21.420Z,5.80
2022-11-24T06:56:48.886Z,5.57
2022-11-24T06:59:21.916Z,5.70
2022-11-24T07:01:49.393Z,5.47
2022-11-24T07:04:16.987Z,4.47
2022-11-24T07:06:44.725Z,5.05
2022-11-24T07:09:13.886Z,4.72
2022-11-24T07:11:41.680Z,4.80
2022-11-24T07:14:09.747Z,3.88
2022-11-24T07:16:38.013Z,6.15
2022-11-24T07:19:05.348Z,4.78
2022-11-24T07:21:32.786Z,4.78
2022-11-24T07:26:41.196Z,5.13
2022-11-24T07:29:08.536Z,4.78
2022-11-24T07:31:35.924Z,4.65
2022-11-24T07:34:03.507Z,4.80
2022-11-24T07:36:30.867Z,4.97
2022-11-24T07:38:58.487Z,5.25
2022-11-24T07:41:25.948Z,5.40
2022-11-24T07:43:53.307Z,5.10
2022-11-24T07:46:20.855Z,5.93
2022-11-24T07:48:48.256Z,5.63
2022-11-24T07:51:16.098Z,6.43
2022-11-24T07:53:43.508Z,5.40
2022-11-24T07:56:10.926Z,5.38
2022-11-24T07:58:38.817Z,5.55
2022-11-24T08:01:14.960Z,5.00
2022-11-24T08:03:43.864Z,5.53
2022-11-24T08:06:33.901Z,5.00
2022-11-24T08:09:00.072Z,3.95
2022-11-24T08:11:27.889Z,5.10
2022-11-24T08:13:55.223Z,4.63
2022-11-24T08:16:23.088Z,5.18
2022-11-24T08:18:55.526Z,4.25
2022-11-24T08:21:23.744Z,4.00
2022-11-24T08:23:57.467Z,4.40
2022-11-24T08:26:25.679Z,5.00
2022-11-24T08:28:59.715Z,4.20
2022-11-24T08:31:34.044Z,4.78
2022-11-24T08:34:04.049Z,5.50
2022-11-24T08:36:31.607Z,4.88
2022-11-24T08:39:00.743Z,6.32
2022-11-24T08:41:29.099Z,4.40
2022-11-24T08:43:56.457Z,5.28
2022-11-24T08:46:24.215Z,5.53
2022-11-24T08:48:53.907Z,5.82
2022-11-24T08:51:25.177Z,4.97
2022-11-24T08:54:01.087Z,5.20
2022-11-24T08:56:31.037Z,6.93
2022-11-24T08:58:59.605Z,5.28
2022-11-24T09:01:28.204Z,5.40
2022-11-24T09:03:56.024Z,6.45
2022-11-24T09:06:26.188Z,5.75
2022-11-24T09:08:56.796Z,6.00
2022-11-24T09:11:25.808Z,6.15
2022-11-24T09:13:54.545Z,5.93
2022-11-24T09:16:26.118Z,5.10
2022-11-24T09:19:02.297Z,6.35
2022-11-24T09:21:30.549Z,5.25
2022-11-24T09:23:57.927Z,5.25
2022-11-24T09:29:11.668Z,9.20
2022-11-24T09:31:39.680Z,8.02
2022-11-24T09:34:15.357Z,18.25
2022-11-24T09:36:43.269Z,11.98
2022-11-24T09:39:11.440Z,15.25
2022-11-24T09:41:43.275Z,13.30
2022-11-24T09:44:38.268Z,13.70
2022-11-24T09:47:33.604Z,12.52
2022-11-24T09:50:10.128Z,8.38
2022-11-24T09:52:39.825Z,7.65
2022-11-24T09:55:25.515Z,10.38
2022-11-24T09:58:03.505Z,8.50
2022-11-24T10:00:31.428Z,8.55
2022-11-24T10:02:58.987Z,9.60
2022-11-24T10:05:29.370Z,8.75
2022-11-24T10:08:19.407Z,7.97
2022-11-24T10:10:57.546Z,8.50
2022-11-24T10:13:54.379Z,7.95
2022-11-24T10:16:56.946Z,7.43
2022-11-24T10:19:52.637Z,8.13
2022-11-24T10:22:50.777Z,9.75
2022-11-24T10:25:55.986Z,7.75
2022-11-24T10:28:36.496Z,7.85
2022-11-24T10:31:25.349Z,9.90
2022-11-24T10:33:52.759Z,10.70
2022-11-24T10:36:43.906Z,9.63
2022-11-24T10:39:21.546Z,8.90
2022-11-24T10:42:10.369Z,9.13
2022-11-24T10:44:38.046Z,8.18
2022-11-24T10:47:20.309Z,10.05
2022-11-24T10:49:58.366Z,7.78
2022-11-24T10:52:28.817Z,7.40
2022-11-24T10:55:04.347Z,7.68
2022-11-24T10:57:36.981Z,8.35
2022-11-24T11:00:19.378Z,6.10
2022-11-24T11:02:51.468Z,6.28
2022-11-24T11:05:33.827Z,7.07
2022-11-24T11:08:17.046Z,7.90
2022-11-24T11:10:45.057Z,6.63
2022-11-24T11:13:30.128Z,7.10
2022-11-24T11:15:58.803Z,8.05
2022-11-24T11:18:54.587Z,7.57
2022-11-24T11:21:38.753Z,9.00
2022-11-24T11:24:15.567Z,9.85
2022-11-24T11:26:43.961Z,10.07
2022-11-24T11:35:12.890Z,7.85
2022-11-24T11:37:40.796Z,8.23
2022-11-24T11:40:32.988Z,7.80
2022-11-24T11:43:31.820Z,7.68
2022-11-24T11:46:08.566Z,9.25
2022-11-24T11:48:43.560Z,8.93
2022-11-24T11:51:37.563Z,9.88
2022-11-24T11:54:36.095Z,7.47
2022-11-24T11:57:17.422Z,6.97
2022-11-24T12:00:00.539Z,7.03
2022-11-24T12:02:58.689Z,7.22
2022-11-24T12:05:26.258Z,8.93
2022-11-24T12:08:10.292Z,6.78
2022-11-24T12:11:10.358Z,7.15
2022-11-24T12:13:59.949Z,7.65
2022-11-24T12:16:46.015Z,6.68
2022-11-24T12:19:22.716Z,7.20
2022-11-24T12:22:19.717Z,7.13
2022-11-24T12:25:02.084Z,7.95
2022-11-24T12:27:40.447Z,8.18
2022-11-24T12:30:16.989Z,8.45
2022-11-24T12:33:02.789Z,8.13
2022-11-24T12:35:49.106Z,8.23
2022-11-24T12:38:33.927Z,6.90
2022-11-24T12:41:40.387Z,7.80
2022-11-24T12:44:11.118Z,7.90
2022-11-24T12:46:56.936Z,7.68
2022-11-24T12:49:47.371Z,7.47
2022-11-24T12:52:28.741Z,8.05
2022-11-24T12:54:57.059Z,7.70
2022-11-24T12:57:56.298Z,7.78
2022-11-24T13:00:32.008Z,8.30
2022-11-24T13:03:20.821Z,7.85
2022-11-24T13:06:01.407Z,9.00
2022-11-24T13:08:30.147Z,8.63
2022-11-24T13:11:23.305Z,8.60
2022-11-24T13:14:31.369Z,8.48
2022-11-24T13:17:31.644Z,7.78
2022-11-24T13:20:18.909Z,8.07
2022-11-24T13:22:57.685Z,7.53
2022-11-24T13:25:26.528Z,6.30
2022-11-24T13:27:59.859Z,7.03
2022-11-24T13:30:36.527Z,7.18
2022-11-24T13:33:16.468Z,6.03
2022-11-24T13:36:04.639Z,6.55
2022-11-24T13:38:44.487Z,6.18
2022-11-24T13:41:31.961Z,6.88
2022-11-24T13:44:17.046Z,5.88
2022-11-24T13:47:07.337Z,5.15
2022-11-24T13:49:39.230Z,5.15
2022-11-24T13:52:38.037Z,5.93
2022-11-24T13:55:22.068Z,5.43
2022-11-24T14:00:27.427Z,5.68
2022-11-24T14:03:38.097Z,5.15
2022-11-24T14:06:06.097Z,5.68
2022-11-24T14:08:36.747Z,6.35
2022-11-24T14:11:15.688Z,6.53
2022-11-24T14:13:43.087Z,7.35
2022-11-24T14:16:10.420Z,6.43
2022-11-24T14:18:43.041Z,5.95
2022-11-24T14:21:25.829Z,4.93
2022-11-24T14:24:00.298Z,5.68
2022-11-24T14:26:39.877Z,5.45
2022-11-24T14:29:22.341Z,5.18
2022-11-24T14:32:16.348Z,5.05
2022-11-24T14:34:43.844Z,4.72
2022-11-24T14:37:11.180Z,5.35
2022-11-24T14:39:42.796Z,4.50
2022-11-24T14:42:25.241Z,4.57
2022-11-24T14:44:56.791Z,5.20
2022-11-24T14:47:36.581Z,4.97
2022-11-24T14:50:19.845Z,4.65
2022-11-24T14:52:56.938Z,5.53
2022-11-24T14:55:31.620Z,5.75
2022-11-24T14:58:00.248Z,6.68
2022-11-24T15:00:33.055Z,6.05
2022-11-24T15:03:02.368Z,5.50
2022-11-24T15:05:55.915Z,6.88
2022-11-24T15:08:25.680Z,5.38
2022-11-24T15:11:01.427Z,6.10
2022-11-24T15:13:33.938Z,5.35
2022-11-24T15:16:26.483Z,6.05
2022-11-24T15:19:02.008Z,7.72
2022-11-24T15:21:34.247Z,6.40
2022-11-24T15:24:07.418Z,5.30
2022-11-24T15:26:41.481Z,6.13
2022-11-24T15:29:10.148Z,7.43
2022-11-24T15:31:38.195Z,7.53
2022-11-24T15:34:05.687Z,6.70
2022-11-24T15:36:33.497Z,9.35
2022-11-24T15:39:00.819Z,8.05
2022-11-24T15:41:32.998Z,8.68
2022-11-24T15:44:00.511Z,8.98
2022-11-24T15:46:29.271Z,6.75
2022-11-24T15:48:57.385Z,6.07
2022-11-24T15:51:26.667Z,5.63
2022-11-24T15:54:00.654Z,8.30
2022-11-24T15:56:36.657Z,7.53
2022-11-24T15:59:04.812Z,9.30
2022-11-24T16:01:34.028Z,7.80
2022-11-24T16:04:02.349Z,8.25
2022-11-24T16:06:29.977Z,7.57
2022-11-24T16:08:58.350Z,8.05
2022-11-24T16:11:25.920Z,7.70
2022-11-24T16:13:54.336Z,7.95
2022-11-24T16:16:23.630Z,8.15
2022-11-24T16:18:51.271Z,7.90
2022-11-24T16:21:18.709Z,7.25
2022-11-24T16:23:46.737Z,7.72
2022-11-24T16:26:14.078Z,8.35
2022-11-24T16:28:42.248Z,6.68
2022-11-24T16:31:09.671Z,8.23
2022-11-24T16:33:40.880Z,10.30
2022-11-24T16:36:09.049Z,9.05
2022-11-24T16:38:36.409Z,11.00
2022-11-24T16:41:03.908Z,10.05
2022-11-24T16:43:31.241Z,7.95
2022-11-24T16:46:19.094Z,7.18
2022-11-24T16:48:48.067Z,7.30
2022-11-24T16:51:16.581Z,6.80
2022-11-24T16:53:44.703Z,6.22
2022-11-24T16:56:12.439Z,6.75
2022-11-24T16:58:41.352Z,5.28
2022-11-24T17:01:13.338Z,5.38
2022-11-24T17:03:41.635Z,6.13
2022-11-24T17:06:11.589Z,5.97
2022-11-24T17:08:41.353Z,7.72
2022-11-24T17:11:19.610Z,7.55
2022-11-24T17:13:47.629Z,6.22
2022-11-24T17:16:20.257Z,5.07
2022-11-24T17:18:48.476Z,6.63
2022-11-24T17:21:33.625Z,6.13
2022-11-24T17:24:05.535Z,5.32
2022-11-24T17:26:33.426Z,4.95
2022-11-24T17:29:00.596Z,4.82
2022-11-24T17:31:33.203Z,5.80
2022-11-24T17:34:01.523Z,6.95
2022-11-24T17:36:31.213Z,5.70
2022-11-24T17:39:04.619Z,5.43
2022-11-24T17:41:32.285Z,5.50
2022-11-24T17:43:59.474Z,5.00
2022-11-24T17:46:28.620Z,4.47
2022-11-24T17:48:55.933Z,5.72
2022-11-24T17:51:25.586Z,4.88
2022-11-24T17:53:54.326Z,5.03
2022-11-24T17:56:24.506Z,5.35
2022-11-24T17:58:56.493Z,5.10
2022-11-24T18:01:24.434Z,5.70
2022-11-24T18:03:53.635Z,5.32
2022-11-24T18:06:24.233Z,4.53
2022-11-24T18:08:52.813Z,4.93
2022-11-24T18:11:31.475Z,5.03
2022-11-24T18:14:03.194Z,4.68
2022-11-24T18:16:32.593Z,5.07
2022-11-24T18:19:10.475Z,5.30
2022-11-24T18:21:40.319Z,5.82
2022-11-24T18:24:08.814Z,5.47
2022-11-24T18:26:36.079Z,5.32
2022-11-24T18:29:03.873Z,4.80
2022-11-24T18:31:32.440Z,4.80
2022-11-24T18:34:00.003Z,4.70
2022-11-24T18:36:30.556Z,5.50
2022-11-24T18:39:03.835Z,4.65
2022-11-24T18:41:31.992Z,4.78
2022-11-24T18:44:02.558Z,4.10
2022-11-24T18:46:29.797Z,4.57
2022-11-24T18:48:57.114Z,4.05
2022-11-24T18:51:24.346Z,4.60
2022-11-24T18:54:04.145Z,4.28
2022-11-24T18:56:31.693Z,5.03
2022-11-24T18:58:58.853Z,4.80
2022-11-24T19:01:28.552Z,4.18
2022-11-24T19:03:57.774Z,4.28
2022-11-24T19:06:32.861Z,4.50
2022-11-24T19:09:03.031Z,5.47
2022-11-24T19:11:41.884Z,3.88
2022-11-24T19:14:12.900Z,4.72
2022-11-24T19:16:41.018Z,4.53
2022-11-24T19:19:08.958Z,4.60
2022-11-24T19:21:39.975Z,5.13
2022-11-24T19:24:10.323Z,4.75
2022-11-24T19:26:38.605Z,4.50
2022-11-24T19:29:07.444Z,4.80
2022-11-24T19:31:35.594Z,5.22
2022-11-24T19:34:03.666Z,4.10
2022-11-24T19:36:31.093Z,4.53
2022-11-24T19:38:59.015Z,4.80
2022-11-24T19:41:30.298Z,5.53
2022-11-24T19:43:58.871Z,5.45
2022-11-24T19:46:29.510Z,4.30
2022-11-24T19:48:59.803Z,4.60
2022-11-24T19:51:33.425Z,5.22
2022-11-24T19:54:00.855Z,4.95
2022-11-24T19:56:30.373Z,6.10
2022-11-24T19:58:57.824Z,12.82
2022-11-24T20:01:30.081Z,11.90
2022-11-24T20:03:59.543Z,12.20
2022-11-24T20:06:38.227Z,9.63
2022-11-24T20:09:08.363Z,9.75
2022-11-24T20:11:35.903Z,7.45
2022-11-24T20:14:03.814Z,10.90
2022-11-24T20:16:32.839Z,6.00
2022-11-24T20:19:08.632Z,5.80
2022-11-24T20:21:38.403Z,5.30
2022-11-24T20:24:10.257Z,5.10
2022-11-24T20:26:40.123Z,5.35
2022-11-24T20:29:09.911Z,4.95
2022-11-24T20:31:39.514Z,4.72
2022-11-24T20:34:08.424Z,4.25
2022-11-24T20:36:38.347Z,5.30
2022-11-24T20:39:15.154Z,4.90
2022-11-24T20:41:42.354Z,4.57
2022-11-24T20:44:17.725Z,4.55
2022-11-24T20:46:46.154Z,5.38
2022-11-24T20:49:19.415Z,4.40
2022-11-24T20:51:49.683Z,5.25
2022-11-24T20:54:18.382Z,4.78
2022-11-24T20:56:46.729Z,5.05
2022-11-24T20:59:21.476Z,4.43
2022-11-24T21:01:50.178Z,5.28
2022-11-24T21:04:20.734Z,4.70
2022-11-24T21:06:48.133Z,5.20
2022-11-24T21:09:15.484Z,4.97
2022-11-24T21:11:43.015Z,5.90
2022-11-24T21:14:10.954Z,5.40
2022-11-24T21:16:40.458Z,5.45
2022-11-24T21:19:11.825Z,6.25
2022-11-24T21:21:40.233Z,5.53
2022-11-24T21:24:14.503Z,4.90
2022-11-24T21:26:42.611Z,5.38
2022-11-24T21:29:13.250Z,4.93
2022-11-24T21:31:41.106Z,5.47
2022-11-24T21:34:08.713Z,5.68
2022-11-24T21:36:37.994Z,5.00
2022-11-24T21:39:05.162Z,6.10
2022-11-24T21:41:33.756Z,5.40
2022-11-24T21:44:01.249Z,5.22
2022-11-24T21:46:38.951Z,6.13
2022-11-24T21:49:08.163Z,5.60
2022-11-24T21:51:35.378Z,5.47
2022-11-24T21:54:02.704Z,5.68
2022-11-24T21:56:29.865Z,7.53
2022-11-24T21:58:58.073Z,5.78
2022-11-24T22:01:28.244Z,5.70
2022-11-24T22:03:56.225Z,5.82
2022-11-24T22:06:23.895Z,6.30
2022-11-24T22:08:51.202Z,5.40
2022-11-24T22:11:25.523Z,7.45
2022-11-24T22:13:53.049Z,6.18
2022-11-24T22:16:23.097Z,5.88
2022-11-24T22:18:51.400Z,6.50
2022-11-24T22:21:23.964Z,6.03
2022-11-24T22:23:54.924Z,5.85
2022-11-24T22:26:24.093Z,5.60
2022-11-24T22:28:51.983Z,5.40
2022-11-24T22:31:28.436Z,6.28
2022-11-24T22:33:57.474Z,5.65
2022-11-24T22:36:26.803Z,5.55
2022-11-24T22:38:55.914Z,5.95
2022-11-24T22:41:24.004Z,5.50
2022-11-24T22:43:51.436Z,5.20
2022-11-24T22:46:24.085Z,5.30
2022-11-24T22:48:55.374Z,6.28
2022-11-24T22:51:26.385Z,5.78
2022-11-24T22:53:58.984Z,6.45
2022-11-24T22:56:28.057Z,4.82
2022-11-24T22:58:55.543Z,6.22
2022-11-24T23:01:25.105Z,5.82
2022-11-24T23:03:56.734Z,6.10
2022-11-24T23:06:26.929Z,5.38
2022-11-24T23:08:54.818Z,5.03
2022-11-24T23:11:30.686Z,6.07
2022-11-24T23:14:03.198Z,5.78
2022-11-24T23:16:30.675Z,5.90
2022-11-24T23:18:58.497Z,5.43
2022-11-24T23:21:26.927Z,5.80
2022-11-24T23:23:54.576Z,6.03
2022-11-24T23:26:24.675Z,5.88
2022-11-24T23:28:52.464Z,6.10
2022-11-24T23:31:24.307Z,6.13
2022-11-24T23:33:51.681Z,6.03
2022-11-24T23:36:20.356Z,6.40
2022-11-24T23:38:48.565Z,6.32
2022-11-24T23:41:18.514Z,6.28
2022-11-24T23:43:45.947Z,5.30
2022-11-24T23:46:15.606Z,5.53
2022-11-24T23:48:43.393Z,5.60
2022-11-24T23:51:22.370Z,6.45
2022-11-24T23:53:50.366Z,6.05
2022-11-24T23:56:20.137Z,6.20
2022-11-24T23:58:47.606Z,6.55
